sensor_id;sensor_type;location;lat;lon;timestamp;P1;durP1;ratioP1;P2;durP2;ratioP2
35540;SDS011;21650;48.840;9.162;2024-03-02T00:00:19;1.27;;;1.17;;
35540;SDS011;21650;48.840;9.162;2024-03-02T00:02:47;2.33;;;1.73;;
35540;SDS011;21650;48.840;9.162;2024-03-02T00:05:20;1.83;;;1.73;;
35540;SDS011;21650;48.840;9.162;2024-03-02T00:07:52;5.97;;;3.63;;
35540;SDS011;21650;48.840;9.162;2024-03-02T00:10:21;1.20;;;0.87;;
35540;SDS011;21650;48.840;9.162;2024-03-02T00:12:53;1.93;;;1.20;;
35540;SDS011;21650;48.840;9.162;2024-03-02T00:17:57;2.63;;;1.53;;
35540;SDS011;21650;48.840;9.162;2024-03-02T00:20:24;6.23;;;1.73;;
35540;SDS011;21650;48.840;9.162;2024-03-02T00:23:03;1.57;;;1.40;;
35540;SDS011;21650;48.840;9.162;2024-03-02T00:25:39;2.80;;;2.03;;
35540;SDS011;21650;48.840;9.162;2024-03-02T00:33:46;2.53;;;1.93;;
35540;SDS011;21650;48.840;9.162;2024-03-02T00:36:16;5.30;;;2.67;;
35540;SDS011;21650;48.840;9.162;2024-03-02T00:38:50;1.23;;;1.17;;
35540;SDS011;21650;48.840;9.162;2024-03-02T00:41:29;1.23;;;1.13;;
35540;SDS011;21650;48.840;9.162;2024-03-02T00:43:59;2.47;;;1.60;;
35540;SDS011;21650;48.840;9.162;2024-03-02T00:49:17;1.40;;;1.30;;
35540;SDS011;21650;48.840;9.162;2024-03-02T00:51:46;1.87;;;1.77;;
35540;SDS011;21650;48.840;9.162;2024-03-02T00:54:15;1.13;;;0.70;;
35540;SDS011;21650;48.840;9.162;2024-03-02T00:56:49;3.77;;;2.40;;
35540;SDS011;21650;48.840;9.162;2024-03-02T00:59:15;2.83;;;2.37;;
35540;SDS011;21650;48.840;9.162;2024-03-02T01:01:41;2.10;;;1.67;;
35540;SDS011;21650;48.840;9.162;2024-03-02T01:04:07;1.53;;;1.43;;
35540;SDS011;21650;48.840;9.162;2024-03-02T01:06:33;3.37;;;2.50;;
35540;SDS011;21650;48.840;9.162;2024-03-02T01:09:02;1.73;;;1.60;;
35540;SDS011;21650;48.840;9.162;2024-03-02T01:11:28;1.37;;;1.27;;
35540;SDS011;21650;48.840;9.162;2024-03-02T01:13:55;2.73;;;1.80;;
35540;SDS011;21650;48.840;9.162;2024-03-02T01:16:20;5.73;;;2.27;;
35540;SDS011;21650;48.840;9.162;2024-03-02T01:18:46;2.87;;;1.73;;
35540;SDS011;21650;48.840;9.162;2024-03-02T01:21:11;3.17;;;1.50;;
35540;SDS011;21650;48.840;9.162;2024-03-02T01:23:37;1.63;;;1.07;;
35540;SDS011;21650;48.840;9.162;2024-03-02T01:26:03;1.90;;;1.63;;
35540;SDS011;21650;48.840;9.162;2024-03-02T01:28:28;1.70;;;1.40;;
35540;SDS011;21650;48.840;9.162;2024-03-02T01:30:54;1.40;;;1.30;;
35540;SDS011;21650;48.840;9.162;2024-03-02T01:33:20;1.80;;;1.47;;
35540;SDS011;21650;48.840;9.162;2024-03-02T01:35:46;0.93;;;0.93;;
35540;SDS011;21650;48.840;9.162;2024-03-02T01:38:12;2.83;;;1.70;;
35540;SDS011;21650;48.840;9.162;2024-03-02T01:40:38;2.83;;;2.33;;
35540;SDS011;21650;48.840;9.162;2024-03-02T01:43:04;1.80;;;1.40;;
35540;SDS011;21650;48.840;9.162;2024-03-02T01:45:31;1.10;;;1.10;;
35540;SDS011;21650;48.840;9.162;2024-03-02T01:47:57;1.73;;;1.33;;
35540;SDS011;21650;48.840;9.162;2024-03-02T01:50:29;3.17;;;2.20;;
35540;SDS011;21650;48.840;9.162;2024-03-02T01:52:57;1.80;;;1.57;;
35540;SDS011;21650;48.840;9.162;2024-03-02T01:55:23;5.17;;;2.73;;
35540;SDS011;21650;48.840;9.162;2024-03-02T01:57:49;2.23;;;1.17;;
35540;SDS011;21650;48.840;9.162;2024-03-02T02:00:21;4.77;;;3.03;;
35540;SDS011;21650;48.840;9.162;2024-03-02T02:02:49;2.57;;;2.37;;
35540;SDS011;21650;48.840;9.162;2024-03-02T02:05:15;2.30;;;1.33;;
35540;SDS011;21650;48.840;9.162;2024-03-02T02:07:41;1.00;;;1.00;;
35540;SDS011;21650;48.840;9.162;2024-03-02T02:10:08;2.17;;;1.00;;
35540;SDS011;21650;48.840;9.162;2024-03-02T02:12:35;3.87;;;1.90;;
35540;SDS011;21650;48.840;9.162;2024-03-02T02:15:01;2.63;;;2.43;;
35540;SDS011;21650;48.840;9.162;2024-03-02T02:17:27;1.67;;;1.43;;
35540;SDS011;21650;48.840;9.162;2024-03-02T02:19:53;2.87;;;2.30;;
35540;SDS011;21650;48.840;9.162;2024-03-02T02:22:18;1.77;;;1.63;;
35540;SDS011;21650;48.840;9.162;2024-03-02T02:24:44;1.87;;;1.70;;
35540;SDS011;21650;48.840;9.162;2024-03-02T02:27:10;3.40;;;2.57;;
35540;SDS011;21650;48.840;9.162;2024-03-02T02:29:36;1.03;;;1.03;;
35540;SDS011;21650;48.840;9.162;2024-03-02T02:32:02;2.33;;;1.23;;
35540;SDS011;21650;48.840;9.162;2024-03-02T02:34:28;1.53;;;1.43;;
35540;SDS011;21650;48.840;9.162;2024-03-02T02:36:54;1.27;;;0.90;;
35540;SDS011;21650;48.840;9.162;2024-03-02T02:39:20;1.50;;;1.07;;
35540;SDS011;21650;48.840;9.162;2024-03-02T02:41:47;2.83;;;2.17;;
35540;SDS011;21650;48.840;9.162;2024-03-02T02:44:13;4.30;;;1.93;;
35540;SDS011;21650;48.840;9.162;2024-03-02T02:46:39;6.43;;;1.53;;
35540;SDS011;21650;48.840;9.162;2024-03-02T02:49:05;2.73;;;2.00;;
35540;SDS011;21650;48.840;9.162;2024-03-02T02:51:31;2.43;;;1.90;;
35540;SDS011;21650;48.840;9.162;2024-03-02T02:53:56;2.83;;;1.80;;
35540;SDS011;21650;48.840;9.162;2024-03-02T02:56:22;3.23;;;2.33;;
35540;SDS011;21650;48.840;9.162;2024-03-02T02:58:48;0.50;;;0.50;;
35540;SDS011;21650;48.840;9.162;2024-03-02T03:01:14;1.17;;;1.07;;
35540;SDS011;21650;48.840;9.162;2024-03-02T03:03:42;1.23;;;1.13;;
35540;SDS011;21650;48.840;9.162;2024-03-02T03:06:09;2.93;;;2.70;;
35540;SDS011;21650;48.840;9.162;2024-03-02T03:08:34;6.00;;;2.17;;
35540;SDS011;21650;48.840;9.162;2024-03-02T03:11:00;3.10;;;2.13;;
35540;SDS011;21650;48.840;9.162;2024-03-02T03:13:25;4.63;;;1.77;;
35540;SDS011;21650;48.840;9.162;2024-03-02T03:15:51;4.67;;;2.73;;
35540;SDS011;21650;48.840;9.162;2024-03-02T03:18:17;3.70;;;1.57;;
35540;SDS011;21650;48.840;9.162;2024-03-02T03:20:43;0.77;;;0.77;;
35540;SDS011;21650;48.840;9.162;2024-03-02T03:23:09;0.67;;;0.53;;
35540;SDS011;21650;48.840;9.162;2024-03-02T03:25:39;1.97;;;1.77;;
35540;SDS011;21650;48.840;9.162;2024-03-02T03:28:05;3.97;;;2.93;;
35540;SDS011;21650;48.840;9.162;2024-03-02T03:30:31;6.97;;;1.90;;
35540;SDS011;21650;48.840;9.162;2024-03-02T03:32:56;2.00;;;1.10;;
35540;SDS011;21650;48.840;9.162;2024-03-02T03:35:22;2.90;;;1.43;;
35540;SDS011;21650;48.840;9.162;2024-03-02T03:37:47;1.27;;;1.13;;
35540;SDS011;21650;48.840;9.162;2024-03-02T03:40:13;2.57;;;2.37;;
35540;SDS011;21650;48.840;9.162;2024-03-02T03:42:39;2.60;;;2.10;;
35540;SDS011;21650;48.840;9.162;2024-03-02T03:45:05;2.33;;;1.87;;
35540;SDS011;21650;48.840;9.162;2024-03-02T03:47:31;1.70;;;1.20;;
35540;SDS011;21650;48.840;9.162;2024-03-02T03:49:57;1.87;;;1.77;;
35540;SDS011;21650;48.840;9.162;2024-03-02T03:52:23;1.57;;;1.33;;
35540;SDS011;21650;48.840;9.162;2024-03-02T03:54:49;4.40;;;1.83;;
35540;SDS011;21650;48.840;9.162;2024-03-02T03:57:15;4.17;;;2.40;;
35540;SDS011;21650;48.840;9.162;2024-03-02T03:59:41;4.47;;;2.27;;
35540;SDS011;21650;48.840;9.162;2024-03-02T04:02:07;3.77;;;2.67;;
35540;SDS011;21650;48.840;9.162;2024-03-02T04:04:33;1.07;;;1.03;;
35540;SDS011;21650;48.840;9.162;2024-03-02T04:06:59;2.77;;;1.70;;
35540;SDS011;21650;48.840;9.162;2024-03-02T04:09:25;2.67;;;2.47;;
35540;SDS011;21650;48.840;9.162;2024-03-02T04:11:50;3.27;;;2.33;;
35540;SDS011;21650;48.840;9.162;2024-03-02T04:14:16;3.13;;;2.17;;
35540;SDS011;21650;48.840;9.162;2024-03-02T04:16:42;2.63;;;1.67;;
35540;SDS011;21650;48.840;9.162;2024-03-02T04:19:08;4.00;;;2.77;;
35540;SDS011;21650;48.840;9.162;2024-03-02T04:21:33;1.53;;;1.43;;
35540;SDS011;21650;48.840;9.162;2024-03-02T04:23:59;3.10;;;1.47;;
35540;SDS011;21650;48.840;9.162;2024-03-02T04:26:25;2.77;;;1.67;;
35540;SDS011;21650;48.840;9.162;2024-03-02T04:28:51;2.73;;;1.90;;
35540;SDS011;21650;48.840;9.162;2024-03-02T04:31:17;2.43;;;2.00;;
35540;SDS011;21650;48.840;9.162;2024-03-02T04:33:43;1.67;;;1.57;;
35540;SDS011;21650;48.840;9.162;2024-03-02T04:36:08;2.93;;;1.83;;
35540;SDS011;21650;48.840;9.162;2024-03-02T04:38:35;4.43;;;2.67;;
35540;SDS011;21650;48.840;9.162;2024-03-02T04:41:00;2.43;;;2.27;;
35540;SDS011;21650;48.840;9.162;2024-03-02T04:43:26;2.67;;;2.03;;
35540;SDS011;21650;48.840;9.162;2024-03-02T04:45:52;3.70;;;1.87;;
35540;SDS011;21650;48.840;9.162;2024-03-02T04:48:17;2.60;;;2.40;;
35540;SDS011;21650;48.840;9.162;2024-03-02T04:50:44;1.70;;;1.60;;
35540;SDS011;21650;48.840;9.162;2024-03-02T04:53:09;2.80;;;2.30;;
35540;SDS011;21650;48.840;9.162;2024-03-02T04:55:35;2.50;;;1.60;;
35540;SDS011;21650;48.840;9.162;2024-03-02T04:58:04;1.90;;;1.80;;
35540;SDS011;21650;48.840;9.162;2024-03-02T05:00:30;4.53;;;2.57;;
35540;SDS011;21650;48.840;9.162;2024-03-02T05:02:56;1.33;;;1.23;;
35540;SDS011;21650;48.840;9.162;2024-03-02T05:05:21;2.03;;;1.70;;
35540;SDS011;21650;48.840;9.162;2024-03-02T05:07:47;6.33;;;3.90;;
35540;SDS011;21650;48.840;9.162;2024-03-02T05:10:12;1.33;;;1.23;;
35540;SDS011;21650;48.840;9.162;2024-03-02T05:12:39;2.43;;;2.27;;
35540;SDS011;21650;48.840;9.162;2024-03-02T05:15:07;2.17;;;1.50;;
35540;SDS011;21650;48.840;9.162;2024-03-02T05:17:35;2.20;;;1.43;;
35540;SDS011;21650;48.840;9.162;2024-03-02T05:20:01;1.10;;;0.83;;
35540;SDS011;21650;48.840;9.162;2024-03-02T05:22:27;1.57;;;1.37;;
35540;SDS011;21650;48.840;9.162;2024-03-02T05:24:52;1.37;;;1.03;;
35540;SDS011;21650;48.840;9.162;2024-03-02T05:27:18;1.73;;;1.63;;
35540;SDS011;21650;48.840;9.162;2024-03-02T05:29:43;1.87;;;1.70;;
35540;SDS011;21650;48.840;9.162;2024-03-02T05:32:09;1.63;;;1.53;;
35540;SDS011;21650;48.840;9.162;2024-03-02T05:34:35;2.37;;;1.73;;
35540;SDS011;21650;48.840;9.162;2024-03-02T05:37:01;3.37;;;1.13;;
35540;SDS011;21650;48.840;9.162;2024-03-02T05:39:26;3.47;;;2.53;;
35540;SDS011;21650;48.840;9.162;2024-03-02T05:41:52;2.17;;;1.97;;
35540;SDS011;21650;48.840;9.162;2024-03-02T05:44:18;1.77;;;1.67;;
35540;SDS011;21650;48.840;9.162;2024-03-02T05:46:44;1.73;;;1.57;;
35540;SDS011;21650;48.840;9.162;2024-03-02T05:49:10;3.27;;;1.53;;
35540;SDS011;21650;48.840;9.162;2024-03-02T05:51:36;3.90;;;1.47;;
35540;SDS011;21650;48.840;9.162;2024-03-02T05:54:02;3.07;;;1.63;;
35540;SDS011;21650;48.840;9.162;2024-03-02T05:56:27;1.43;;;1.33;;
35540;SDS011;21650;48.840;9.162;2024-03-02T05:58:53;8.57;;;1.83;;
35540;SDS011;21650;48.840;9.162;2024-03-02T06:01:40;1.40;;;1.30;;
35540;SDS011;21650;48.840;9.162;2024-03-02T06:04:09;4.83;;;1.80;;
35540;SDS011;21650;48.840;9.162;2024-03-02T06:06:36;1.00;;;1.00;;
35540;SDS011;21650;48.840;9.162;2024-03-02T06:09:02;3.10;;;1.43;;
35540;SDS011;21650;48.840;9.162;2024-03-02T06:11:32;4.30;;;3.60;;
35540;SDS011;21650;48.840;9.162;2024-03-02T06:13:58;4.03;;;2.30;;
35540;SDS011;21650;48.840;9.162;2024-03-02T06:16:24;6.27;;;1.40;;
35540;SDS011;21650;48.840;9.162;2024-03-02T06:18:50;3.43;;;1.33;;
35540;SDS011;21650;48.840;9.162;2024-03-02T06:21:16;6.37;;;2.83;;
35540;SDS011;21650;48.840;9.162;2024-03-02T06:23:43;2.37;;;1.83;;
35540;SDS011;21650;48.840;9.162;2024-03-02T06:26:09;2.40;;;2.10;;
35540;SDS011;21650;48.840;9.162;2024-03-02T06:28:34;1.67;;;1.37;;
35540;SDS011;21650;48.840;9.162;2024-03-02T06:31:00;1.57;;;1.47;;
35540;SDS011;21650;48.840;9.162;2024-03-02T06:33:27;2.40;;;1.47;;
35540;SDS011;21650;48.840;9.162;2024-03-02T06:35:53;2.07;;;1.60;;
35540;SDS011;21650;48.840;9.162;2024-03-02T06:38:19;3.03;;;2.37;;
35540;SDS011;21650;48.840;9.162;2024-03-02T06:40:45;2.67;;;2.13;;
35540;SDS011;21650;48.840;9.162;2024-03-02T06:43:10;1.63;;;1.23;;
35540;SDS011;21650;48.840;9.162;2024-03-02T06:45:36;5.30;;;1.80;;
35540;SDS011;21650;48.840;9.162;2024-03-02T06:48:02;2.00;;;1.77;;
35540;SDS011;21650;48.840;9.162;2024-03-02T06:50:27;1.93;;;1.83;;
35540;SDS011;21650;48.840;9.162;2024-03-02T06:52:53;1.50;;;1.07;;
35540;SDS011;21650;48.840;9.162;2024-03-02T06:55:21;2.50;;;2.30;;
35540;SDS011;21650;48.840;9.162;2024-03-02T06:57:46;1.80;;;1.30;;
35540;SDS011;21650;48.840;9.162;2024-03-02T07:00:12;3.93;;;1.93;;
35540;SDS011;21650;48.840;9.162;2024-03-02T07:02:39;6.17;;;2.83;;
35540;SDS011;21650;48.840;9.162;2024-03-02T07:05:06;0.93;;;0.93;;
35540;SDS011;21650;48.840;9.162;2024-03-02T07:07:34;1.23;;;1.13;;
35540;SDS011;21650;48.840;9.162;2024-03-02T07:10:00;5.03;;;2.03;;
35540;SDS011;21650;48.840;9.162;2024-03-02T07:12:26;14.37;;;2.63;;
35540;SDS011;21650;48.840;9.162;2024-03-02T07:14:52;1.47;;;1.33;;
35540;SDS011;21650;48.840;9.162;2024-03-02T07:17:29;6.13;;;2.63;;
35540;SDS011;21650;48.840;9.162;2024-03-02T07:19:55;1.03;;;1.03;;
35540;SDS011;21650;48.840;9.162;2024-03-02T07:22:21;1.77;;;1.37;;
35540;SDS011;21650;48.840;9.162;2024-03-02T07:24:48;2.20;;;1.63;;
35540;SDS011;21650;48.840;9.162;2024-03-02T07:27:14;3.50;;;2.43;;
35540;SDS011;21650;48.840;9.162;2024-03-02T07:29:41;2.60;;;2.43;;
35540;SDS011;21650;48.840;9.162;2024-03-02T07:32:07;2.43;;;2.23;;
35540;SDS011;21650;48.840;9.162;2024-03-02T07:34:33;2.33;;;2.20;;
35540;SDS011;21650;48.840;9.162;2024-03-02T07:36:59;2.53;;;2.20;;
35540;SDS011;21650;48.840;9.162;2024-03-02T07:39:25;3.70;;;2.77;;
35540;SDS011;21650;48.840;9.162;2024-03-02T07:41:51;5.93;;;2.63;;
35540;SDS011;21650;48.840;9.162;2024-03-02T07:44:17;3.20;;;2.90;;
35540;SDS011;21650;48.840;9.162;2024-03-02T07:46:44;1.87;;;1.63;;
35540;SDS011;21650;48.840;9.162;2024-03-02T07:49:11;3.53;;;2.40;;
35540;SDS011;21650;48.840;9.162;2024-03-02T07:51:38;5.93;;;3.07;;
35540;SDS011;21650;48.840;9.162;2024-03-02T07:54:04;1.17;;;0.90;;
35540;SDS011;21650;48.840;9.162;2024-03-02T07:56:30;1.23;;;1.13;;
35540;SDS011;21650;48.840;9.162;2024-03-02T07:58:56;3.93;;;3.53;;
35540;SDS011;21650;48.840;9.162;2024-03-02T08:01:25;2.07;;;1.90;;
35540;SDS011;21650;48.840;9.162;2024-03-02T08:03:58;4.60;;;1.53;;
35540;SDS011;21650;48.840;9.162;2024-03-02T08:06:24;4.57;;;2.70;;
35540;SDS011;21650;48.840;9.162;2024-03-02T08:08:53;3.10;;;2.70;;
35540;SDS011;21650;48.840;9.162;2024-03-02T08:11:20;1.97;;;1.50;;
35540;SDS011;21650;48.840;9.162;2024-03-02T08:13:46;1.77;;;1.53;;
35540;SDS011;21650;48.840;9.162;2024-03-02T08:16:12;3.63;;;1.47;;
35540;SDS011;21650;48.840;9.162;2024-03-02T08:18:38;3.03;;;2.73;;
35540;SDS011;21650;48.840;9.162;2024-03-02T08:21:04;4.07;;;2.87;;
35540;SDS011;21650;48.840;9.162;2024-03-02T08:23:30;3.47;;;1.87;;
35540;SDS011;21650;48.840;9.162;2024-03-02T08:25:57;3.87;;;3.00;;
35540;SDS011;21650;48.840;9.162;2024-03-02T08:28:22;7.00;;;2.43;;
35540;SDS011;21650;48.840;9.162;2024-03-02T08:30:48;1.70;;;1.60;;
35540;SDS011;21650;48.840;9.162;2024-03-02T08:33:13;2.00;;;1.57;;
35540;SDS011;21650;48.840;9.162;2024-03-02T08:35:39;1.40;;;1.30;;
35540;SDS011;21650;48.840;9.162;2024-03-02T08:38:05;1.67;;;0.70;;
35540;SDS011;21650;48.840;9.162;2024-03-02T08:40:30;0.90;;;0.90;;
35540;SDS011;21650;48.840;9.162;2024-03-02T08:42:56;1.70;;;1.17;;
35540;SDS011;21650;48.840;9.162;2024-03-02T08:45:22;4.43;;;1.30;;
35540;SDS011;21650;48.840;9.162;2024-03-02T08:47:47;0.70;;;0.70;;
35540;SDS011;21650;48.840;9.162;2024-03-02T08:50:13;1.27;;;1.27;;
35540;SDS011;21650;48.840;9.162;2024-03-02T08:52:39;4.53;;;1.63;;
35540;SDS011;21650;48.840;9.162;2024-03-02T08:55:05;1.97;;;1.77;;
35540;SDS011;21650;48.840;9.162;2024-03-02T08:57:32;2.53;;;1.10;;
35540;SDS011;21650;48.840;9.162;2024-03-02T08:59:58;3.93;;;1.67;;
35540;SDS011;21650;48.840;9.162;2024-03-02T09:02:24;2.53;;;2.33;;
35540;SDS011;21650;48.840;9.162;2024-03-02T09:04:49;1.13;;;1.13;;
35540;SDS011;21650;48.840;9.162;2024-03-02T09:07:15;2.53;;;1.63;;
35540;SDS011;21650;48.840;9.162;2024-03-02T09:09:41;3.97;;;3.57;;
35540;SDS011;21650;48.840;9.162;2024-03-02T09:12:06;2.97;;;1.97;;
35540;SDS011;21650;48.840;9.162;2024-03-02T09:14:32;1.67;;;1.43;;
35540;SDS011;21650;48.840;9.162;2024-03-02T09:16:58;3.40;;;1.90;;
35540;SDS011;21650;48.840;9.162;2024-03-02T09:19:24;3.03;;;1.00;;
35540;SDS011;21650;48.840;9.162;2024-03-02T09:21:49;2.50;;;2.07;;
35540;SDS011;21650;48.840;9.162;2024-03-02T09:24:15;2.40;;;1.80;;
35540;SDS011;21650;48.840;9.162;2024-03-02T09:26:41;1.60;;;1.20;;
35540;SDS011;21650;48.840;9.162;2024-03-02T09:29:07;6.47;;;2.10;;
35540;SDS011;21650;48.840;9.162;2024-03-02T09:31:32;1.70;;;1.37;;
35540;SDS011;21650;48.840;9.162;2024-03-02T09:33:58;2.10;;;1.37;;
35540;SDS011;21650;48.840;9.162;2024-03-02T09:36:23;2.63;;;1.20;;
35540;SDS011;21650;48.840;9.162;2024-03-02T09:38:49;1.50;;;0.87;;
35540;SDS011;21650;48.840;9.162;2024-03-02T09:41:15;1.23;;;1.03;;
35540;SDS011;21650;48.840;9.162;2024-03-02T09:43:41;1.87;;;1.33;;
35540;SDS011;21650;48.840;9.162;2024-03-02T09:46:08;1.63;;;1.33;;
35540;SDS011;21650;48.840;9.162;2024-03-02T09:48:35;1.33;;;1.23;;
35540;SDS011;21650;48.840;9.162;2024-03-02T09:51:00;1.23;;;1.13;;
35540;SDS011;21650;48.840;9.162;2024-03-02T09:53:31;1.07;;;0.97;;
35540;SDS011;21650;48.840;9.162;2024-03-02T09:55:59;2.70;;;1.13;;
35540;SDS011;21650;48.840;9.162;2024-03-02T09:58:25;3.50;;;1.50;;
35540;SDS011;21650;48.840;9.162;2024-03-02T10:00:51;1.63;;;1.53;;
35540;SDS011;21650;48.840;9.162;2024-03-02T10:03:18;2.67;;;1.57;;
35540;SDS011;21650;48.840;9.162;2024-03-02T10:05:44;1.10;;;1.00;;
35540;SDS011;21650;48.840;9.162;2024-03-02T10:08:09;1.53;;;1.43;;
35540;SDS011;21650;48.840;9.162;2024-03-02T10:10:36;1.50;;;0.90;;
35540;SDS011;21650;48.840;9.162;2024-03-02T10:13:08;1.73;;;1.33;;
35540;SDS011;21650;48.840;9.162;2024-03-02T10:15:35;2.47;;;1.20;;
35540;SDS011;21650;48.840;9.162;2024-03-02T10:18:08;2.53;;;1.47;;
35540;SDS011;21650;48.840;9.162;2024-03-02T10:20:37;3.17;;;1.47;;
35540;SDS011;21650;48.840;9.162;2024-03-02T10:23:11;0.97;;;0.67;;
35540;SDS011;21650;48.840;9.162;2024-03-02T10:25:37;1.33;;;0.83;;
35540;SDS011;21650;48.840;9.162;2024-03-02T10:28:03;0.60;;;0.60;;
35540;SDS011;21650;48.840;9.162;2024-03-02T10:30:32;1.33;;;1.33;;
35540;SDS011;21650;48.840;9.162;2024-03-02T10:32:59;1.70;;;1.60;;
35540;SDS011;21650;48.840;9.162;2024-03-02T10:35:28;1.73;;;0.60;;
35540;SDS011;21650;48.840;9.162;2024-03-02T10:37:57;1.57;;;0.93;;
35540;SDS011;21650;48.840;9.162;2024-03-02T10:40:26;0.60;;;0.60;;
35540;SDS011;21650;48.840;9.162;2024-03-02T10:42:52;0.90;;;0.90;;
35540;SDS011;21650;48.840;9.162;2024-03-02T10:45:18;0.93;;;0.47;;
35540;SDS011;21650;48.840;9.162;2024-03-02T10:47:46;0.60;;;0.60;;
35540;SDS011;21650;48.840;9.162;2024-03-02T10:50:12;2.20;;;1.10;;
35540;SDS011;21650;48.840;9.162;2024-03-02T10:52:38;2.30;;;0.77;;
35540;SDS011;21650;48.840;9.162;2024-03-02T10:55:04;1.50;;;1.40;;
35540;SDS011;21650;48.840;9.162;2024-03-02T11:00:08;3.73;;;1.00;;
35540;SDS011;21650;48.840;9.162;2024-03-02T11:02:44;1.03;;;0.77;;
35540;SDS011;21650;48.840;9.162;2024-03-02T11:05:16;1.90;;;1.10;;
35540;SDS011;21650;48.840;9.162;2024-03-02T11:07:50;2.33;;;1.40;;
35540;SDS011;21650;48.840;9.162;2024-03-02T11:10:21;1.03;;;0.87;;
35540;SDS011;21650;48.840;9.162;2024-03-02T11:12:56;1.60;;;0.83;;
35540;SDS011;21650;48.840;9.162;2024-03-02T11:15:27;2.40;;;1.57;;
35540;SDS011;21650;48.840;9.162;2024-03-02T11:17:53;0.63;;;0.63;;
35540;SDS011;21650;48.840;9.162;2024-03-02T11:20:19;1.30;;;1.17;;
35540;SDS011;21650;48.840;9.162;2024-03-02T11:22:46;1.73;;;0.97;;
35540;SDS011;21650;48.840;9.162;2024-03-02T11:25:25;2.33;;;0.60;;
35540;SDS011;21650;48.840;9.162;2024-03-02T11:33:15;1.03;;;0.90;;
35540;SDS011;21650;48.840;9.162;2024-03-02T11:35:48;0.27;;;0.27;;
35540;SDS011;21650;48.840;9.162;2024-03-02T11:38:14;1.93;;;1.03;;
35540;SDS011;21650;48.840;9.162;2024-03-02T11:40:40;1.50;;;0.87;;
35540;SDS011;21650;48.840;9.162;2024-03-02T11:43:06;0.40;;;0.40;;
35540;SDS011;21650;48.840;9.162;2024-03-02T11:45:35;0.30;;;0.30;;
35540;SDS011;21650;48.840;9.162;2024-03-02T11:48:04;0.40;;;0.40;;
35540;SDS011;21650;48.840;9.162;2024-03-02T11:50:35;1.50;;;0.90;;
35540;SDS011;21650;48.840;9.162;2024-03-02T11:53:06;0.50;;;0.50;;
35540;SDS011;21650;48.840;9.162;2024-03-02T11:55:38;0.50;;;0.40;;
35540;SDS011;21650;48.840;9.162;2024-03-02T11:58:05;0.37;;;0.20;;
35540;SDS011;21650;48.840;9.162;2024-03-02T12:00:31;0.20;;;0.20;;
35540;SDS011;21650;48.840;9.162;2024-03-02T12:03:01;0.63;;;0.40;;
35540;SDS011;21650;48.840;9.162;2024-03-02T12:05:29;0.20;;;0.20;;
35540;SDS011;21650;48.840;9.162;2024-03-02T12:07:58;0.30;;;0.30;;
35540;SDS011;21650;48.840;9.162;2024-03-02T12:10:26;0.40;;;0.20;;
35540;SDS011;21650;48.840;9.162;2024-03-02T12:12:59;0.20;;;0.20;;
35540;SDS011;21650;48.840;9.162;2024-03-02T12:15:26;0.13;;;0.13;;
35540;SDS011;21650;48.840;9.162;2024-03-02T12:17:56;0.30;;;0.20;;
35540;SDS011;21650;48.840;9.162;2024-03-02T12:20:24;0.00;;;0.00;;
35540;SDS011;21650;48.840;9.162;2024-03-02T12:22:54;0.00;;;0.00;;
35540;SDS011;21650;48.840;9.162;2024-03-02T12:25:21;0.30;;;0.17;;
35540;SDS011;21650;48.840;9.162;2024-03-02T12:27:48;0.00;;;0.00;;
35540;SDS011;21650;48.840;9.162;2024-03-02T12:30:21;0.20;;;0.20;;
35540;SDS011;21650;48.840;9.162;2024-03-02T12:32:47;0.33;;;0.13;;
35540;SDS011;21650;48.840;9.162;2024-03-02T12:35:13;0.20;;;0.20;;
35540;SDS011;21650;48.840;9.162;2024-03-02T12:37:47;0.27;;;0.17;;
35540;SDS011;21650;48.840;9.162;2024-03-02T12:40:15;0.13;;;0.13;;
35540;SDS011;21650;48.840;9.162;2024-03-02T12:42:45;0.30;;;0.10;;
35540;SDS011;21650;48.840;9.162;2024-03-02T12:45:11;0.10;;;0.10;;
35540;SDS011;21650;48.840;9.162;2024-03-02T12:47:39;0.03;;;0.03;;
35540;SDS011;21650;48.840;9.162;2024-03-02T12:50:06;1.53;;;0.10;;
35540;SDS011;21650;48.840;9.162;2024-03-02T12:52:32;0.00;;;0.00;;
35540;SDS011;21650;48.840;9.162;2024-03-02T12:54:59;1.07;;;0.20;;
35540;SDS011;21650;48.840;9.162;2024-03-02T12:57:27;0.40;;;0.23;;
35540;SDS011;21650;48.840;9.162;2024-03-02T13:00:12;0.87;;;0.20;;
35540;SDS011;21650;48.840;9.162;2024-03-02T13:02:41;0.10;;;0.10;;
35540;SDS011;21650;48.840;9.162;2024-03-02T13:05:07;2.20;;;0.90;;
35540;SDS011;21650;48.840;9.162;2024-03-02T13:07:36;0.10;;;0.10;;
35540;SDS011;21650;48.840;9.162;2024-03-02T13:10:02;0.30;;;0.20;;
35540;SDS011;21650;48.840;9.162;2024-03-02T13:12:29;0.30;;;0.30;;
35540;SDS011;21650;48.840;9.162;2024-03-02T13:14:57;0.13;;;0.13;;
35540;SDS011;21650;48.840;9.162;2024-03-02T13:17:23;0.00;;;0.00;;
35540;SDS011;21650;48.840;9.162;2024-03-02T13:19:53;0.10;;;0.10;;
35540;SDS011;21650;48.840;9.162;2024-03-02T13:22:23;0.33;;;0.33;;
35540;SDS011;21650;48.840;9.162;2024-03-02T13:24:49;0.10;;;0.10;;
35540;SDS011;21650;48.840;9.162;2024-03-02T13:27:16;0.47;;;0.13;;
35540;SDS011;21650;48.840;9.162;2024-03-02T13:29:44;0.10;;;0.10;;
35540;SDS011;21650;48.840;9.162;2024-03-02T13:32:11;0.00;;;0.00;;
35540;SDS011;21650;48.840;9.162;2024-03-02T13:34:37;0.33;;;0.33;;
35540;SDS011;21650;48.840;9.162;2024-03-02T13:37:03;0.00;;;0.00;;
35540;SDS011;21650;48.840;9.162;2024-03-02T13:39:30;0.13;;;0.13;;
35540;SDS011;21650;48.840;9.162;2024-03-02T13:41:57;0.10;;;0.10;;
35540;SDS011;21650;48.840;9.162;2024-03-02T13:44:29;1.37;;;0.57;;
35540;SDS011;21650;48.840;9.162;2024-03-02T13:46:55;0.40;;;0.30;;
35540;SDS011;21650;48.840;9.162;2024-03-02T13:49:21;0.10;;;0.10;;
35540;SDS011;21650;48.840;9.162;2024-03-02T13:51:48;0.20;;;0.20;;
35540;SDS011;21650;48.840;9.162;2024-03-02T13:54:13;0.50;;;0.40;;
35540;SDS011;21650;48.840;9.162;2024-03-02T13:56:39;0.17;;;0.17;;
35540;SDS011;21650;48.840;9.162;2024-03-02T13:59:05;0.20;;;0.20;;
35540;SDS011;21650;48.840;9.162;2024-03-02T14:01:32;0.30;;;0.30;;
35540;SDS011;21650;48.840;9.162;2024-03-02T14:03:58;0.50;;;0.30;;
35540;SDS011;21650;48.840;9.162;2024-03-02T14:06:23;0.20;;;0.20;;
35540;SDS011;21650;48.840;9.162;2024-03-02T14:08:51;1.30;;;0.60;;
35540;SDS011;21650;48.840;9.162;2024-03-02T14:11:17;0.57;;;0.40;;
35540;SDS011;21650;48.840;9.162;2024-03-02T14:13:44;0.47;;;0.17;;
35540;SDS011;21650;48.840;9.162;2024-03-02T14:16:14;0.30;;;0.30;;
35540;SDS011;21650;48.840;9.162;2024-03-02T14:18:40;0.40;;;0.20;;
35540;SDS011;21650;48.840;9.162;2024-03-02T14:21:06;0.90;;;0.53;;
35540;SDS011;21650;48.840;9.162;2024-03-02T14:23:32;0.47;;;0.30;;
35540;SDS011;21650;48.840;9.162;2024-03-02T14:25:58;0.27;;;0.27;;
35540;SDS011;21650;48.840;9.162;2024-03-02T14:28:24;1.33;;;0.80;;
35540;SDS011;21650;48.840;9.162;2024-03-02T14:30:50;0.20;;;0.20;;
35540;SDS011;21650;48.840;9.162;2024-03-02T14:33:15;2.33;;;0.57;;
35540;SDS011;21650;48.840;9.162;2024-03-02T14:35:41;0.00;;;0.00;;
35540;SDS011;21650;48.840;9.162;2024-03-02T14:38:07;0.87;;;0.80;;
35540;SDS011;21650;48.840;9.162;2024-03-02T14:40:33;0.10;;;0.10;;
35540;SDS011;21650;48.840;9.162;2024-03-02T14:42:58;0.20;;;0.20;;
35540;SDS011;21650;48.840;9.162;2024-03-02T14:45:24;0.10;;;0.10;;
35540;SDS011;21650;48.840;9.162;2024-03-02T14:47:49;0.20;;;0.10;;
35540;SDS011;21650;48.840;9.162;2024-03-02T14:50:17;0.20;;;0.20;;
35540;SDS011;21650;48.840;9.162;2024-03-02T14:52:43;0.40;;;0.30;;
35540;SDS011;21650;48.840;9.162;2024-03-02T14:55:10;0.20;;;0.20;;
35540;SDS011;21650;48.840;9.162;2024-03-02T14:57:36;0.80;;;0.43;;
35540;SDS011;21650;48.840;9.162;2024-03-02T15:00:01;1.10;;;0.47;;
35540;SDS011;21650;48.840;9.162;2024-03-02T15:02:28;2.20;;;0.43;;
35540;SDS011;21650;48.840;9.162;2024-03-02T15:04:54;1.17;;;0.20;;